Latest Coastal Weather Observations for Point Stuart

IDD60701

Issued at 2:21 am CST Wednesday 1 April 2015 (issued every 10 minutes, with the page automatically refreshed every 10 minutes)

About coastal observations | Map of coastal stations | Coastal observations for NT | Marine services | Other Formats
Station Details ID: 014254 Name: POINT STUART Lat: -12.24 Lon: 131.88 Height: 1.0 m
Data from the previous 72 hours. | See also: Recent months for locations in Northern Territory
Date/Time
CST
Temp

°C
Wind Pressure Rain
since 9am
mm
Weather Cloud Vis
km
Sea
Height
m
Swell
Dir
 
Speed
knots
Gust
knots
hPa Trend Height
m
Period
s
Dir
01/02:00am 26.4 N 3 4 1010.5 - 0.0 - - - - - - -
01/01:30am 26.6 NNE 3 4 1010.9 - 0.0 - - - - - - -
01/01:00am 26.6 NNE 3 4 1011.2 - 0.0 - - - - - - -
01/12:30am 26.9 NNE 3 5 1011.4 - 0.0 - - - - - - -
01/12:00am 26.7 NNE 4 5 1011.5 - 0.0 - - - - - - -
 
Date/Time
CST
Temp

°C
Wind Pressure Rain
since 9am
mm
Weather Cloud Vis
km
Sea
Height
m
Swell
Dir
 
Speed
knots
Gust
knots
hPa Trend Height
m
Period
s
Dir
31/11:30pm 26.8 N 3 4 1011.5 - 0.0 - - - - - - -
31/11:00pm 26.8 N 3 5 1011.6 - 0.0 - - - - - - -
31/10:30pm 26.8 N 1 3 1011.4 - 0.0 - - - - - - -
31/10:00pm 26.8 CALM 0 2 1011.4 - 0.0 - - - - - - -
31/09:30pm 26.7 NW 3 5 1011.1 - 0.0 - - - - - - -
31/09:00pm 26.8 CALM 0 0 1011.0 - 0.0 - - - - - - -
31/08:30pm 27.3 CALM 0 0 1010.6 - 0.0 - - - - - - -
31/08:00pm 27.2 NW 3 4 1010.3 - 0.0 - - - - - - -
31/07:30pm 27.5 NNW 1 3 1010.0 - 0.0 - - - - - - -
31/07:00pm 28.0 CALM 0 0 1009.8 - 0.0 - - - - - - -
31/06:30pm 29.0 CALM 0 0 1009.7 - 0.0 - - - - - - -
31/06:00pm 29.3 CALM 0 0 1009.6 - 0.0 - - - - - - -
31/05:30pm 30.3 CALM 0 0 1009.4 - 0.0 - - - - - - -
31/05:00pm 30.4 NNE 1 3 1009.3 - 0.0 - - - - - - -
31/04:30pm 30.7 NNE 2 5 1009.2 - 0.0 - - - - - - -
31/04:00pm 31.4 NNE 6 8 1009.1 - 0.0 - - - - - - -
31/03:30pm 31.2 NE 5 8 1009.2 - 0.0 - - - - - - -
31/03:00pm 31.7 NE 6 8 1009.4 - 0.0 - - - - - - -
31/02:30pm 31.8 NNE 6 11 1009.7 - 0.0 - - - - - - -
31/02:00pm 31.5 NE 7 11 1010.3 - 0.0 - - - - - - -
31/01:30pm 31.4 NE 9 13 1010.7 - 0.0 - - - - - - -
31/01:00pm 30.5 NE 9 14 1011.2 - 0.0 - - - - - - -
31/12:30pm 31.5 NE 8 12 1011.7 - 0.0 - - - - - - -
31/12:00pm 31.5 NE 8 13 1012.2 - 0.0 - - - - - - -
31/11:30am 30.9 ENE 8 12 1012.4 - 0.0 - - - - - - -
31/11:00am 30.8 E 10 14 1012.5 - 0.0 - - - - - - -
31/10:30am 30.4 E 11 16 1012.6 - 0.0 - - - - - - -
31/10:00am 30.1 E 10 14 1012.9 - 0.0 - - - - - - -
31/09:30am 29.5 ESE 10 14 1013.1 - 0.0 - - - - - - -
31/09:00am 28.9 ESE 9 13 1013.2 - 0.0 - - - - - - -
31/08:30am 27.9 ESE 7 11 1013.1 - 0.0 - - - - - - -
31/08:00am 26.4 ESE 6 7 1013.0 - 0.0 - - - - - - -
31/07:30am 25.4 ESE 6 7 1012.8 - 0.0 - - - - - - -
31/07:00am 25.5 ESE 7 9 1012.2 - 0.0 - - - - - - -
31/06:30am 25.9 ESE 7 9 1011.9 - 0.0 - - - - - - -
31/06:00am 25.8 E 6 7 1011.6 - 0.0 - - - - - - -
31/05:30am 25.5 ESE 6 7 1011.3 - 0.0 - - - - - - -
31/05:00am 25.4 ESE 6 7 1011.1 - 0.0 - - - - - - -
31/04:30am 25.6 SE 7 8 1010.8 - 0.0 - - - - - - -
31/04:00am 26.0 ESE 6 8 1010.7 - 0.0 - - - - - - -
31/03:30am 26.3 ESE 5 7 1010.7 - 0.0 - - - - - - -
31/03:00am 26.7 ESE 5 6 1010.7 - 0.0 - - - - - - -
31/02:30am 27.0 SE 5 7 1010.9 - 0.0 - - - - - - -
31/02:00am 27.3 SSE 5 6 1011.1 - 0.0 - - - - - - -
31/01:30am 27.4 ESE 3 4 1011.4 - 0.0 - - - - - - -
31/01:00am 27.7 ESE 2 3 1011.7 - 0.0 - - - - - - -
31/12:30am 28.5 ENE 9 13 1012.2 - 0.0 - - - - - - -
31/12:00am 28.3 NE 7 10 1012.5 - 0.0 - - - - - - -
 
Date/Time
CST
Temp

°C
Wind Pressure Rain
since 9am
mm
Weather Cloud Vis
km
Sea
Height
m
Swell
Dir
 
Speed
knots
Gust
knots
hPa Trend Height
m
Period
s
Dir
30/11:30pm 27.8 N 6 9 1012.7 - 0.0 - - - - - - -
30/11:00pm 26.7 N 4 5 1012.7 - 0.0 - - - - - - -
30/10:30pm 26.9 N 4 5 1012.6 - 0.0 - - - - - - -
30/10:00pm 27.1 N 4 5 1012.4 - 0.0 - - - - - - -
30/09:30pm 27.4 N 4 5 1012.1 - 0.0 - - - - - - -
30/09:00pm 27.2 N 4 5 1012.0 - 0.0 - - - - - - -
30/08:30pm 27.2 N 3 4 1011.8 - 0.0 - - - - - - -
30/08:00pm 27.8 N 3 4 1011.5 - 0.0 - - - - - - -
30/07:00pm 28.4 N 3 5 1011.0 - 0.0 - - - - - - -
30/06:30pm 29.4 NNE 3 5 1010.8 - 0.0 - - - - - - -
30/06:00pm 30.3 NNE 4 6 1010.7 - 0.0 - - - - - - -
30/05:30pm 30.8 NNE 5 8 1010.4 - 0.0 - - - - - - -
30/05:00pm 31.3 NNE 6 9 1010.3 - 0.0 - - - - - - -
30/04:30pm 31.5 NE 8 11 1010.2 - 0.0 - - - - - - -
30/04:00pm 31.1 NE 9 13 1010.2 - 0.0 - - - - - - -
30/03:30pm 31.3 NE 10 13 1010.4 - 0.0 - - - - - - -
30/03:00pm 31.5 NE 10 14 1010.5 - 0.0 - - - - - - -
30/02:30pm 31.4 NE 11 16 1010.8 - 0.0 - - - - - - -
30/02:00pm 31.5 NE 11 16 1010.9 - 0.0 - - - - - - -
30/01:30pm 31.3 NE 11 14 1011.0 - 0.0 - - - - - - -
30/01:00pm 31.1 ENE 10 16 1011.3 - 0.0 - - - - - - -
30/12:30pm 30.7 ENE 7 11 1011.6 - 0.0 - - - - - - -
30/12:00pm 30.4 ENE 10 14 1012.1 - 0.0 - - - - - - -
30/11:30am 30.0 E 10 14 1012.5 - 0.0 - - - - - - -
30/11:00am 29.8 E 10 14 1012.9 - 0.0 - - - - - - -
30/10:30am 29.4 E 11 15 1013.2 - 0.0 - - - - - - -
30/10:00am 29.2 E 12 16 1013.2 - 0.0 - - - - - - -
30/09:30am 29.0 ENE 12 15 1013.1 - 0.0 - - - - - - -
30/09:00am 28.8 E 11 14 1012.9 - 0.0 - - - - - - -
30/08:30am 28.3 NE 10 14 1012.3 - 0.0 - - - - - - -
30/08:00am 27.8 NE 9 14 1012.2 - 0.0 - - - - - - -
30/07:30am 27.1 N 11 14 1011.9 - 0.0 - - - - - - -
30/07:00am 26.3 NNE 8 10 1011.5 - 0.0 - - - - - - -
30/06:30am 25.0 NNE 5 6 1011.3 - 0.0 - - - - - - -
30/06:00am 24.8 NE 5 7 1011.1 - 0.0 - - - - - - -
30/05:30am 24.9 NNE 4 5 1011.0 - 0.0 - - - - - - -
30/05:00am 24.7 NNE 4 5 1010.8 - 0.0 - - - - - - -
30/04:30am 24.9 E 2 4 1010.8 - 0.0 - - - - - - -
30/04:00am 24.9 CALM 0 1 1010.7 - 0.0 - - - - - - -
30/03:30am 25.8 NNE 3 4 1010.8 - 0.0 - - - - - - -
30/03:00am 25.9 NE 2 4 1011.0 - 0.0 - - - - - - -
30/02:30am 25.7 E 4 7 1011.1 - 0.0 - - - - - - -
30/02:00am 25.4 ESE 4 7 1011.5 - 0.0 - - - - - - -
30/01:30am 25.8 E 3 4 1011.6 - 0.0 - - - - - - -
30/01:00am 26.1 CALM 0 0 1011.9 - 0.0 - - - - - - -
30/12:30am 26.4 S 3 4 1012.3 - 0.0 - - - - - - -
30/12:00am 26.5 CALM 0 0 1012.5 - 0.0 - - - - - - -
 
Date/Time
CST
Temp

°C
Wind Pressure Rain
since 9am
mm
Weather Cloud Vis
km
Sea
Height
m
Swell
Dir
 
Speed
knots
Gust
knots
hPa Trend Height
m
Period
s
Dir
29/11:30pm 27.0 N 3 4 1012.5 - 0.0 - - - - - - -
29/11:00pm 27.0 N 3 5 1012.5 - 0.0 - - - - - - -
29/10:30pm 27.3 NNE 5 6 1012.6 - 0.0 - - - - - - -
29/10:00pm 27.7 NNE 6 8 1012.5 - 0.0 - - - - - - -
29/09:30pm 28.0 NNE 6 8 1012.3 - 0.0 - - - - - - -
29/09:00pm 28.1 NNE 7 9 1012.1 - 0.0 - - - - - - -
29/08:30pm 27.9 NNE 6 9 1011.8 - 0.0 - - - - - - -
29/08:00pm 27.9 NNE 5 7 1011.5 - 0.0 - - - - - - -
29/07:30pm 28.0 NNE 5 6 1011.1 - 0.0 - - - - - - -
29/07:00pm 28.4 NNE 4 5 1010.7 - 0.0 - - - - - - -
29/06:30pm 29.7 N 3 4 1010.4 - 0.0 - - - - - - -
29/06:00pm 30.5 NNE 3 5 1010.2 - 0.0 - - - - - - -
29/05:30pm 31.1 NNE 4 7 1009.9 - 0.0 - - - - - - -
29/05:00pm 31.4 NNE 5 8 1009.9 - 0.0 - - - - - - -
29/04:30pm 31.3 NNE 6 8 1009.8 - 0.0 - - - - - - -
29/04:00pm 31.4 N 5 8 1009.8 - 0.0 - - - - - - -
29/03:30pm 31.7 N 6 9 1009.9 - 0.0 - - - - - - -
29/03:00pm 31.4 NNE 6 10 1010.1 - 0.0 - - - - - - -
29/02:30pm 31.4 NNE 6 10 1010.3 - 0.0 - - - - - - -
29/02:00pm 31.0 NNE 7 11 1010.6 - 0.0 - - - - - - -
29/01:30pm 31.3 NNE 7 11 1010.9 - 0.0 - - - - - - -
29/01:00pm 31.2 NE 6 9 1011.3 - 0.0 - - - - - - -
29/12:30pm 31.3 NE 6 9 1011.9 - 0.0 - - - - - - -
29/12:00pm 30.8 ENE 6 9 1012.5 - 0.0 - - - - - - -
29/11:30am 30.5 NE 7 11 1012.8 - 0.0 - - - - - - -
29/11:00am 29.7 ENE 8 12 1013.0 - 0.0 - - - - - - -
29/10:30am 29.7 ENE 8 10 1013.3 - 0.0 - - - - - - -
29/10:00am 29.2 ENE 8 12 1013.3 - 0.0 - - - - - - -
29/09:30am 28.9 E 8 11 1013.1 - 0.0 - - - - - - -
29/09:00am 28.6 E 8 10 1012.9 - 0.0 - - - - - - -
29/08:30am 27.8 E 7 9 1012.8 - 0.0 - - - - - - -
29/08:00am 26.6 SE 5 7 1012.5 - 0.0 - - - - - - -
29/07:30am 25.4 ESE 4 6 1012.0 - 0.0 - - - - - - -
29/07:00am 25.0 S 4 5 1011.9 - 0.0 - - - - - - -
29/06:30am 25.0 S 1 3 1011.6 - 0.0 - - - - - - -
29/06:00am 25.1 SSE 2 5 1011.5 - 0.0 - - - - - - -
29/05:30am 25.1 CALM 0 3 1011.2 - 0.0 - - - - - - -
29/05:00am 25.4 S 3 4 1011.1 - 0.0 - - - - - - -
29/04:30am 25.4 CALM 0 0 1010.8 - 0.0 - - - - - - -
29/04:00am 25.4 CALM 0 0 1010.9 - 0.0 - - - - - - -
29/03:30am 25.4 ESE 4 5 1011.0 - 0.0 - - - - - - -
29/03:00am 25.5 ESE 2 4 1010.9 - 0.0 - - - - - - -
29/02:30am 26.0 CALM 0 0 1011.3 - 0.0 - - - - - - -

Other Formats:

Comma delimited format used in spreadsheet applications
http://www.bom.gov.au/fwo/IDD60701/IDD60701.94127.axf

JavaScript Object Notation format (JSON) in row-major order
http://www.bom.gov.au/fwo/IDD60701/IDD60701.94127.json